sensor_id;sensor_type;location;lat;lon;timestamp;temperature;humidity
37782;DHT22;23621;50.878;4.584;2023-10-09T00:01:39;24.10;73.40
37782;DHT22;23621;50.878;4.584;2023-10-09T00:04:30;24.10;73.40
37782;DHT22;23621;50.878;4.584;2023-10-09T00:07:17;24.10;73.40
37782;DHT22;23621;50.878;4.584;2023-10-09T00:10:05;24.10;73.40
37782;DHT22;23621;50.878;4.584;2023-10-09T00:12:59;24.10;73.60
37782;DHT22;23621;50.878;4.584;2023-10-09T00:15:46;24.10;73.70
37782;DHT22;23621;50.878;4.584;2023-10-09T00:18:40;24.10;73.70
37782;DHT22;23621;50.878;4.584;2023-10-09T00:21:34;24.10;73.70
37782;DHT22;23621;50.878;4.584;2023-10-09T00:24:22;24.10;73.80
37782;DHT22;23621;50.878;4.584;2023-10-09T00:27:12;24.10;73.70
37782;DHT22;23621;50.878;4.584;2023-10-09T00:30:00;24.10;73.70
37782;DHT22;23621;50.878;4.584;2023-10-09T00:32:47;24.10;73.70
37782;DHT22;23621;50.878;4.584;2023-10-09T00:35:55;24.10;73.70
37782;DHT22;23621;50.878;4.584;2023-10-09T00:38:42;24.10;73.70
37782;DHT22;23621;50.878;4.584;2023-10-09T00:41:34;24.10;73.70
37782;DHT22;23621;50.878;4.584;2023-10-09T00:44:22;24.10;73.90
37782;DHT22;23621;50.878;4.584;2023-10-09T00:47:11;24.10;73.90
37782;DHT22;23621;50.878;4.584;2023-10-09T00:50:09;24.10;73.90
37782;DHT22;23621;50.878;4.584;2023-10-09T00:53:02;24.10;73.90
37782;DHT22;23621;50.878;4.584;2023-10-09T00:55:52;24.00;73.80
37782;DHT22;23621;50.878;4.584;2023-10-09T00:58:42;24.00;73.80
37782;DHT22;23621;50.878;4.584;2023-10-09T01:01:30;24.00;73.90
37782;DHT22;23621;50.878;4.584;2023-10-09T01:04:26;24.00;73.90
37782;DHT22;23621;50.878;4.584;2023-10-09T01:07:16;24.00;73.90
37782;DHT22;23621;50.878;4.584;2023-10-09T01:10:07;24.00;73.90
37782;DHT22;23621;50.878;4.584;2023-10-09T01:12:58;24.00;74.00
37782;DHT22;23621;50.878;4.584;2023-10-09T01:15:46;24.00;74.00
37782;DHT22;23621;50.878;4.584;2023-10-09T01:18:33;23.90;73.80
37782;DHT22;23621;50.878;4.584;2023-10-09T01:21:26;24.00;73.80
37782;DHT22;23621;50.878;4.584;2023-10-09T01:24:19;24.00;73.70
37782;DHT22;23621;50.878;4.584;2023-10-09T01:27:07;23.90;73.60
37782;DHT22;23621;50.878;4.584;2023-10-09T01:30:04;23.90;73.60
37782;DHT22;23621;50.878;4.584;2023-10-09T01:32:52;23.80;73.50
37782;DHT22;23621;50.878;4.584;2023-10-09T01:35:39;23.80;73.50
37782;DHT22;23621;50.878;4.584;2023-10-09T01:38:34;23.80;73.40
37782;DHT22;23621;50.878;4.584;2023-10-09T01:41:28;23.70;74.00
37782;DHT22;23621;50.878;4.584;2023-10-09T01:44:21;23.60;73.00
37782;DHT22;23621;50.878;4.584;2023-10-09T01:47:09;23.60;72.90
37782;DHT22;23621;50.878;4.584;2023-10-09T01:50:01;23.50;72.60
37782;DHT22;23621;50.878;4.584;2023-10-09T01:52:52;23.60;72.50
37782;DHT22;23621;50.878;4.584;2023-10-09T01:55:39;23.70;72.40
37782;DHT22;23621;50.878;4.584;2023-10-09T01:58:27;23.70;72.40
37782;DHT22;23621;50.878;4.584;2023-10-09T02:01:19;23.70;72.40
37782;DHT22;23621;50.878;4.584;2023-10-09T02:04:08;23.70;72.30
37782;DHT22;23621;50.878;4.584;2023-10-09T02:07:01;23.70;72.30
37782;DHT22;23621;50.878;4.584;2023-10-09T02:09:55;23.70;72.30
37782;DHT22;23621;50.878;4.584;2023-10-09T02:12:43;23.70;72.40
37782;DHT22;23621;50.878;4.584;2023-10-09T02:15:30;23.70;72.40
37782;DHT22;23621;50.878;4.584;2023-10-09T02:18:30;23.70;72.30
37782;DHT22;23621;50.878;4.584;2023-10-09T02:21:20;23.70;72.40
37782;DHT22;23621;50.878;4.584;2023-10-09T02:24:21;23.70;72.30
37782;DHT22;23621;50.878;4.584;2023-10-09T02:27:34;23.70;72.40
37782;DHT22;23621;50.878;4.584;2023-10-09T02:30:32;23.80;72.40
37782;DHT22;23621;50.878;4.584;2023-10-09T02:33:21;23.80;72.30
37782;DHT22;23621;50.878;4.584;2023-10-09T02:36:15;23.70;72.40
37782;DHT22;23621;50.878;4.584;2023-10-09T02:39:02;23.70;72.40
37782;DHT22;23621;50.878;4.584;2023-10-09T02:41:53;23.60;72.40
37782;DHT22;23621;50.878;4.584;2023-10-09T02:44:49;23.70;72.50
37782;DHT22;23621;50.878;4.584;2023-10-09T02:47:39;23.70;72.40
37782;DHT22;23621;50.878;4.584;2023-10-09T02:50:27;23.70;72.40
37782;DHT22;23621;50.878;4.584;2023-10-09T02:53:15;23.70;72.40
37782;DHT22;23621;50.878;4.584;2023-10-09T02:56:16;23.70;72.40
37782;DHT22;23621;50.878;4.584;2023-10-09T02:59:05;23.70;72.20
37782;DHT22;23621;50.878;4.584;2023-10-09T03:01:55;23.60;71.90
37782;DHT22;23621;50.878;4.584;2023-10-09T03:04:42;23.60;72.00
37782;DHT22;23621;50.878;4.584;2023-10-09T03:07:30;23.60;72.00
37782;DHT22;23621;50.878;4.584;2023-10-09T03:10:17;23.50;71.90
37782;DHT22;23621;50.878;4.584;2023-10-09T03:13:04;23.60;72.00
37782;DHT22;23621;50.878;4.584;2023-10-09T03:15:54;23.50;71.90
37782;DHT22;23621;50.878;4.584;2023-10-09T03:18:42;23.50;72.00
37782;DHT22;23621;50.878;4.584;2023-10-09T03:21:29;23.50;72.00
37782;DHT22;23621;50.878;4.584;2023-10-09T03:24:17;23.40;72.10
37782;DHT22;23621;50.878;4.584;2023-10-09T03:27:06;23.40;72.00
37782;DHT22;23621;50.878;4.584;2023-10-09T03:29:54;23.40;72.00
37782;DHT22;23621;50.878;4.584;2023-10-09T03:32:42;23.40;72.00
37782;DHT22;23621;50.878;4.584;2023-10-09T03:35:29;23.40;72.10
37782;DHT22;23621;50.878;4.584;2023-10-09T03:38:20;23.40;72.10
37782;DHT22;23621;50.878;4.584;2023-10-09T03:41:08;23.30;72.00
37782;DHT22;23621;50.878;4.584;2023-10-09T03:44:03;23.20;72.00
37782;DHT22;23621;50.878;4.584;2023-10-09T03:46:50;23.20;72.10
37782;DHT22;23621;50.878;4.584;2023-10-09T03:49:38;23.10;72.10
37782;DHT22;23621;50.878;4.584;2023-10-09T03:52:26;23.20;72.30
37782;DHT22;23621;50.878;4.584;2023-10-09T03:55:15;23.20;72.30
37782;DHT22;23621;50.878;4.584;2023-10-09T03:58:02;23.20;72.10
37782;DHT22;23621;50.878;4.584;2023-10-09T04:00:50;23.30;72.20
37782;DHT22;23621;50.878;4.584;2023-10-09T04:03:38;23.20;72.00
37782;DHT22;23621;50.878;4.584;2023-10-09T04:06:30;23.30;72.10
37782;DHT22;23621;50.878;4.584;2023-10-09T04:09:19;23.30;72.10
37782;DHT22;23621;50.878;4.584;2023-10-09T04:12:07;23.30;72.00
37782;DHT22;23621;50.878;4.584;2023-10-09T04:14:57;23.30;72.00
37782;DHT22;23621;50.878;4.584;2023-10-09T04:17:48;23.30;72.00
37782;DHT22;23621;50.878;4.584;2023-10-09T04:20:38;23.20;72.00
37782;DHT22;23621;50.878;4.584;2023-10-09T04:23:46;23.20;72.00
37782;DHT22;23621;50.878;4.584;2023-10-09T04:26:51;23.20;72.10
37782;DHT22;23621;50.878;4.584;2023-10-09T04:29:45;23.20;72.20
37782;DHT22;23621;50.878;4.584;2023-10-09T04:32:34;23.20;73.00
37782;DHT22;23621;50.878;4.584;2023-10-09T04:35:21;23.30;72.20
37782;DHT22;23621;50.878;4.584;2023-10-09T04:38:13;23.30;72.20
37782;DHT22;23621;50.878;4.584;2023-10-09T04:41:01;23.30;72.20
37782;DHT22;23621;50.878;4.584;2023-10-09T04:43:52;23.20;72.10
37782;DHT22;23621;50.878;4.584;2023-10-09T04:46:39;23.20;72.10
37782;DHT22;23621;50.878;4.584;2023-10-09T04:49:31;23.30;72.20
37782;DHT22;23621;50.878;4.584;2023-10-09T04:52:32;23.30;72.20
37782;DHT22;23621;50.878;4.584;2023-10-09T04:55:20;23.20;72.20
37782;DHT22;23621;50.878;4.584;2023-10-09T04:58:11;23.20;72.30
37782;DHT22;23621;50.878;4.584;2023-10-09T05:01:10;23.20;72.30
37782;DHT22;23621;50.878;4.584;2023-10-09T05:04:03;23.20;72.30
37782;DHT22;23621;50.878;4.584;2023-10-09T05:07:07;23.20;72.30
37782;DHT22;23621;50.878;4.584;2023-10-09T05:10:12;23.20;72.30
37782;DHT22;23621;50.878;4.584;2023-10-09T05:13:11;23.30;72.30
37782;DHT22;23621;50.878;4.584;2023-10-09T05:16:00;23.20;72.40
37782;DHT22;23621;50.878;4.584;2023-10-09T05:18:50;23.20;72.40
37782;DHT22;23621;50.878;4.584;2023-10-09T05:21:44;23.20;72.50
37782;DHT22;23621;50.878;4.584;2023-10-09T05:24:32;23.20;72.40
37782;DHT22;23621;50.878;4.584;2023-10-09T05:27:31;23.20;72.40
37782;DHT22;23621;50.878;4.584;2023-10-09T05:30:37;23.30;72.50
37782;DHT22;23621;50.878;4.584;2023-10-09T05:33:29;23.20;72.40
37782;DHT22;23621;50.878;4.584;2023-10-09T05:36:17;23.30;72.60
37782;DHT22;23621;50.878;4.584;2023-10-09T05:39:19;23.30;72.50
37782;DHT22;23621;50.878;4.584;2023-10-09T05:42:29;23.30;72.50
37782;DHT22;23621;50.878;4.584;2023-10-09T05:45:29;23.30;72.50
37782;DHT22;23621;50.878;4.584;2023-10-09T05:48:36;23.30;72.40
37782;DHT22;23621;50.878;4.584;2023-10-09T05:51:26;23.30;72.40
37782;DHT22;23621;50.878;4.584;2023-10-09T05:54:31;23.30;72.50
37782;DHT22;23621;50.878;4.584;2023-10-09T05:57:37;23.30;72.50
37782;DHT22;23621;50.878;4.584;2023-10-09T06:00:43;23.20;72.60
37782;DHT22;23621;50.878;4.584;2023-10-09T06:03:49;23.20;72.60
37782;DHT22;23621;50.878;4.584;2023-10-09T06:06:36;23.20;72.60
37782;DHT22;23621;50.878;4.584;2023-10-09T06:09:31;23.10;72.60
37782;DHT22;23621;50.878;4.584;2023-10-09T06:12:37;23.20;72.80
37782;DHT22;23621;50.878;4.584;2023-10-09T06:15:38;23.20;72.80
37782;DHT22;23621;50.878;4.584;2023-10-09T06:18:34;23.20;72.90
37782;DHT22;23621;50.878;4.584;2023-10-09T06:21:22;23.20;72.80
37782;DHT22;23621;50.878;4.584;2023-10-09T06:24:47;23.20;72.80
37782;DHT22;23621;50.878;4.584;2023-10-09T06:27:40;23.10;72.70
37782;DHT22;23621;50.878;4.584;2023-10-09T06:30:44;23.10;72.80
37782;DHT22;23621;50.878;4.584;2023-10-09T06:33:34;23.10;72.70
37782;DHT22;23621;50.878;4.584;2023-10-09T06:36:41;23.10;72.70
37782;DHT22;23621;50.878;4.584;2023-10-09T06:39:40;23.10;72.60
37782;DHT22;23621;50.878;4.584;2023-10-09T06:42:42;23.10;72.50
37782;DHT22;23621;50.878;4.584;2023-10-09T06:45:29;23.20;72.50
37782;DHT22;23621;50.878;4.584;2023-10-09T06:48:31;23.20;72.50
37782;DHT22;23621;50.878;4.584;2023-10-09T06:51:22;23.30;72.50
37782;DHT22;23621;50.878;4.584;2023-10-09T06:54:12;23.30;72.70
37782;DHT22;23621;50.878;4.584;2023-10-09T06:57:03;23.30;72.60
37782;DHT22;23621;50.878;4.584;2023-10-09T07:00:00;23.40;72.50
37782;DHT22;23621;50.878;4.584;2023-10-09T07:03:22;23.40;72.40
37782;DHT22;23621;50.878;4.584;2023-10-09T07:06:17;23.40;72.30
37782;DHT22;23621;50.878;4.584;2023-10-09T07:09:13;23.40;72.30
37782;DHT22;23621;50.878;4.584;2023-10-09T07:12:00;23.40;72.30
37782;DHT22;23621;50.878;4.584;2023-10-09T07:14:51;23.40;72.20
37782;DHT22;23621;50.878;4.584;2023-10-09T07:17:38;23.40;72.20
37782;DHT22;23621;50.878;4.584;2023-10-09T07:20:25;23.50;72.20
37782;DHT22;23621;50.878;4.584;2023-10-09T07:23:25;23.50;72.30
37782;DHT22;23621;50.878;4.584;2023-10-09T07:26:16;23.50;72.40
37782;DHT22;23621;50.878;4.584;2023-10-09T07:29:12;23.50;72.30
37782;DHT22;23621;50.878;4.584;2023-10-09T07:32:09;23.50;72.30
37782;DHT22;23621;50.878;4.584;2023-10-09T07:35:00;23.50;72.30
37782;DHT22;23621;50.878;4.584;2023-10-09T07:37:47;23.60;72.30
37782;DHT22;23621;50.878;4.584;2023-10-09T07:40:38;23.60;72.40
37782;DHT22;23621;50.878;4.584;2023-10-09T07:43:44;23.60;72.30
37782;DHT22;23621;50.878;4.584;2023-10-09T07:46:32;23.60;72.40
37782;DHT22;23621;50.878;4.584;2023-10-09T07:49:20;23.60;72.40
37782;DHT22;23621;50.878;4.584;2023-10-09T07:52:14;23.70;72.40
37782;DHT22;23621;50.878;4.584;2023-10-09T07:55:02;23.70;72.50
37782;DHT22;23621;50.878;4.584;2023-10-09T07:57:49;23.70;72.40
37782;DHT22;23621;50.878;4.584;2023-10-09T08:00:39;23.80;72.40
37782;DHT22;23621;50.878;4.584;2023-10-09T08:03:49;23.80;72.30
37782;DHT22;23621;50.878;4.584;2023-10-09T08:06:44;23.90;72.40
37782;DHT22;23621;50.878;4.584;2023-10-09T08:09:52;23.80;72.20
37782;DHT22;23621;50.878;4.584;2023-10-09T08:13:01;23.80;72.30
37782;DHT22;23621;50.878;4.584;2023-10-09T08:16:08;23.80;72.20
37782;DHT22;23621;50.878;4.584;2023-10-09T08:19:05;23.80;72.20
37782;DHT22;23621;50.878;4.584;2023-10-09T08:22:29;23.90;72.10
37782;DHT22;23621;50.878;4.584;2023-10-09T08:25:16;23.90;72.10
37782;DHT22;23621;50.878;4.584;2023-10-09T08:28:19;23.90;72.10
37782;DHT22;23621;50.878;4.584;2023-10-09T08:31:24;23.90;72.00
37782;DHT22;23621;50.878;4.584;2023-10-09T08:34:30;24.00;72.10
37782;DHT22;23621;50.878;4.584;2023-10-09T08:37:38;24.10;72.10
37782;DHT22;23621;50.878;4.584;2023-10-09T08:40:36;24.10;72.00
37782;DHT22;23621;50.878;4.584;2023-10-09T08:43:27;24.10;72.00
37782;DHT22;23621;50.878;4.584;2023-10-09T08:46:24;24.10;72.00
37782;DHT22;23621;50.878;4.584;2023-10-09T08:49:14;24.10;71.90
37782;DHT22;23621;50.878;4.584;2023-10-09T08:52:02;24.10;71.80
37782;DHT22;23621;50.878;4.584;2023-10-09T08:54:51;24.10;71.70
37782;DHT22;23621;50.878;4.584;2023-10-09T08:57:41;24.00;71.60
37782;DHT22;23621;50.878;4.584;2023-10-09T09:00:32;24.10;71.70
37782;DHT22;23621;50.878;4.584;2023-10-09T09:03:21;24.20;71.70
37782;DHT22;23621;50.878;4.584;2023-10-09T09:06:11;24.30;71.70
37782;DHT22;23621;50.878;4.584;2023-10-09T09:09:13;24.30;71.60
37782;DHT22;23621;50.878;4.584;2023-10-09T09:12:05;24.40;71.70
37782;DHT22;23621;50.878;4.584;2023-10-09T09:14:53;24.50;71.60
37782;DHT22;23621;50.878;4.584;2023-10-09T09:17:40;24.50;71.30
37782;DHT22;23621;50.878;4.584;2023-10-09T09:20:29;24.50;71.30
37782;DHT22;23621;50.878;4.584;2023-10-09T09:23:27;24.60;71.40
37782;DHT22;23621;50.878;4.584;2023-10-09T09:26:15;24.60;71.20
37782;DHT22;23621;50.878;4.584;2023-10-09T09:29:05;24.70;71.10
37782;DHT22;23621;50.878;4.584;2023-10-09T09:31:55;24.70;70.90
37782;DHT22;23621;50.878;4.584;2023-10-09T09:34:54;24.80;71.10
37782;DHT22;23621;50.878;4.584;2023-10-09T09:37:42;24.80;70.90
37782;DHT22;23621;50.878;4.584;2023-10-09T09:40:39;24.80;70.80
37782;DHT22;23621;50.878;4.584;2023-10-09T09:43:29;24.90;71.00
37782;DHT22;23621;50.878;4.584;2023-10-09T09:46:26;24.90;71.20
37782;DHT22;23621;50.878;4.584;2023-10-09T09:49:22;25.10;71.20
37782;DHT22;23621;50.878;4.584;2023-10-09T09:52:11;25.00;71.10
37782;DHT22;23621;50.878;4.584;2023-10-09T09:55:00;25.00;71.10
37782;DHT22;23621;50.878;4.584;2023-10-09T09:57:49;25.00;71.10
37782;DHT22;23621;50.878;4.584;2023-10-09T10:00:39;25.00;71.00
37782;DHT22;23621;50.878;4.584;2023-10-09T10:03:36;25.00;70.80
37782;DHT22;23621;50.878;4.584;2023-10-09T10:06:25;25.10;70.60
37782;DHT22;23621;50.878;4.584;2023-10-09T10:09:34;25.10;70.70
37782;DHT22;23621;50.878;4.584;2023-10-09T10:12:58;25.10;70.70
37782;DHT22;23621;50.878;4.584;2023-10-09T10:15:58;25.10;70.20
37782;DHT22;23621;50.878;4.584;2023-10-09T10:18:54;25.20;70.40
37782;DHT22;23621;50.878;4.584;2023-10-09T10:21:48;25.20;71.00
37782;DHT22;23621;50.878;4.584;2023-10-09T10:24:41;25.20;71.00
37782;DHT22;23621;50.878;4.584;2023-10-09T10:28:22;25.20;70.20
37782;DHT22;23621;50.878;4.584;2023-10-09T10:32:02;25.30;70.50
37782;DHT22;23621;50.878;4.584;2023-10-09T10:34:55;25.30;70.00
37782;DHT22;23621;50.878;4.584;2023-10-09T10:37:46;25.40;70.30
37782;DHT22;23621;50.878;4.584;2023-10-09T10:40:51;25.40;70.40
37782;DHT22;23621;50.878;4.584;2023-10-09T10:43:45;25.50;70.30
37782;DHT22;23621;50.878;4.584;2023-10-09T10:46:40;25.50;70.10
37782;DHT22;23621;50.878;4.584;2023-10-09T10:49:31;25.60;70.40
37782;DHT22;23621;50.878;4.584;2023-10-09T10:52:26;25.60;70.40
37782;DHT22;23621;50.878;4.584;2023-10-09T10:55:23;25.70;70.40
37782;DHT22;23621;50.878;4.584;2023-10-09T10:58:22;25.70;70.00
37782;DHT22;23621;50.878;4.584;2023-10-09T11:01:22;25.80;69.70
37782;DHT22;23621;50.878;4.584;2023-10-09T11:04:13;25.90;69.60
37782;DHT22;23621;50.878;4.584;2023-10-09T11:07:02;25.90;69.60
37782;DHT22;23621;50.878;4.584;2023-10-09T11:10:05;25.90;69.50
37782;DHT22;23621;50.878;4.584;2023-10-09T11:12:53;25.90;69.50
37782;DHT22;23621;50.878;4.584;2023-10-09T11:15:40;25.90;69.30
37782;DHT22;23621;50.878;4.584;2023-10-09T11:18:43;25.90;69.30
37782;DHT22;23621;50.878;4.584;2023-10-09T11:21:33;26.00;69.70
37782;DHT22;23621;50.878;4.584;2023-10-09T11:24:28;26.10;70.20
37782;DHT22;23621;50.878;4.584;2023-10-09T11:27:21;26.10;69.40
37782;DHT22;23621;50.878;4.584;2023-10-09T11:30:11;26.10;69.50
37782;DHT22;23621;50.878;4.584;2023-10-09T11:33:08;26.10;69.20
37782;DHT22;23621;50.878;4.584;2023-10-09T11:36:01;26.20;68.80
37782;DHT22;23621;50.878;4.584;2023-10-09T11:38:54;26.20;68.90
37782;DHT22;23621;50.878;4.584;2023-10-09T11:42:03;26.30;69.20
37782;DHT22;23621;50.878;4.584;2023-10-09T11:44:51;26.30;68.40
37782;DHT22;23621;50.878;4.584;2023-10-09T11:47:42;26.40;68.70
37782;DHT22;23621;50.878;4.584;2023-10-09T11:50:45;26.40;68.20
37782;DHT22;23621;50.878;4.584;2023-10-09T11:53:43;26.40;67.80
37782;DHT22;23621;50.878;4.584;2023-10-09T11:56:30;26.40;67.10
37782;DHT22;23621;50.878;4.584;2023-10-09T11:59:19;26.40;66.90
37782;DHT22;23621;50.878;4.584;2023-10-09T12:02:08;26.40;66.50
37782;DHT22;23621;50.878;4.584;2023-10-09T12:05:00;26.40;66.40
37782;DHT22;23621;50.878;4.584;2023-10-09T12:07:47;26.40;66.40
37782;DHT22;23621;50.878;4.584;2023-10-09T12:10:42;26.40;66.40
37782;DHT22;23621;50.878;4.584;2023-10-09T12:13:29;26.50;66.80
37782;DHT22;23621;50.878;4.584;2023-10-09T12:16:18;26.50;66.10
37782;DHT22;23621;50.878;4.584;2023-10-09T12:19:06;26.50;66.40
37782;DHT22;23621;50.878;4.584;2023-10-09T12:21:56;26.60;66.40
37782;DHT22;23621;50.878;4.584;2023-10-09T12:24:44;26.50;66.20
37782;DHT22;23621;50.878;4.584;2023-10-09T12:27:32;26.60;66.10
37782;DHT22;23621;50.878;4.584;2023-10-09T12:30:20;26.60;66.20
37782;DHT22;23621;50.878;4.584;2023-10-09T12:33:13;26.50;66.30
37782;DHT22;23621;50.878;4.584;2023-10-09T12:36:02;26.60;66.80
37782;DHT22;23621;50.878;4.584;2023-10-09T12:38:51;26.70;67.30
37782;DHT22;23621;50.878;4.584;2023-10-09T12:41:46;26.80;67.70
37782;DHT22;23621;50.878;4.584;2023-10-09T12:44:34;26.80;67.30
37782;DHT22;23621;50.878;4.584;2023-10-09T12:47:26;26.70;67.10
37782;DHT22;23621;50.878;4.584;2023-10-09T12:50:14;26.80;67.90
37782;DHT22;23621;50.878;4.584;2023-10-09T12:53:01;26.80;67.70
37782;DHT22;23621;50.878;4.584;2023-10-09T12:55:54;26.90;67.60
37782;DHT22;23621;50.878;4.584;2023-10-09T12:58:43;26.90;67.80
37782;DHT22;23621;50.878;4.584;2023-10-09T13:01:43;27.00;68.50
37782;DHT22;23621;50.878;4.584;2023-10-09T13:04:31;26.90;68.20
37782;DHT22;23621;50.878;4.584;2023-10-09T13:07:20;26.90;68.00
37782;DHT22;23621;50.878;4.584;2023-10-09T13:10:09;26.90;67.60
37782;DHT22;23621;50.878;4.584;2023-10-09T13:12:57;26.90;67.60
37782;DHT22;23621;50.878;4.584;2023-10-09T13:15:44;26.80;67.60
37782;DHT22;23621;50.878;4.584;2023-10-09T13:18:31;26.80;67.40
37782;DHT22;23621;50.878;4.584;2023-10-09T13:21:19;26.90;67.60
37782;DHT22;23621;50.878;4.584;2023-10-09T13:24:07;26.90;67.80
37782;DHT22;23621;50.878;4.584;2023-10-09T13:27:02;26.90;67.90
37782;DHT22;23621;50.878;4.584;2023-10-09T13:29:51;26.90;67.90
37782;DHT22;23621;50.878;4.584;2023-10-09T13:32:39;26.90;68.10
37782;DHT22;23621;50.878;4.584;2023-10-09T13:35:26;26.80;69.30
37782;DHT22;23621;50.878;4.584;2023-10-09T13:38:24;26.70;69.50
37782;DHT22;23621;50.878;4.584;2023-10-09T13:41:13;26.90;69.30
37782;DHT22;23621;50.878;4.584;2023-10-09T13:44:01;27.00;69.20
37782;DHT22;23621;50.878;4.584;2023-10-09T13:46:50;27.10;69.00
37782;DHT22;23621;50.878;4.584;2023-10-09T13:49:37;27.00;68.70
37782;DHT22;23621;50.878;4.584;2023-10-09T13:52:29;26.90;69.10
37782;DHT22;23621;50.878;4.584;2023-10-09T13:55:18;27.00;68.90
37782;DHT22;23621;50.878;4.584;2023-10-09T13:58:05;27.10;68.90
37782;DHT22;23621;50.878;4.584;2023-10-09T14:01:00;27.10;69.20
37782;DHT22;23621;50.878;4.584;2023-10-09T14:03:48;27.00;68.50
37782;DHT22;23621;50.878;4.584;2023-10-09T14:06:37;27.00;68.30
37782;DHT22;23621;50.878;4.584;2023-10-09T14:09:25;27.00;68.30
37782;DHT22;23621;50.878;4.584;2023-10-09T14:12:24;27.00;68.70
37782;DHT22;23621;50.878;4.584;2023-10-09T14:15:16;27.00;68.70
37782;DHT22;23621;50.878;4.584;2023-10-09T14:18:04;27.00;68.80
37782;DHT22;23621;50.878;4.584;2023-10-09T14:20:56;27.10;68.80
37782;DHT22;23621;50.878;4.584;2023-10-09T14:23:44;26.90;69.20
37782;DHT22;23621;50.878;4.584;2023-10-09T14:26:33;26.90;69.50
37782;DHT22;23621;50.878;4.584;2023-10-09T14:29:21;27.10;69.20
37782;DHT22;23621;50.878;4.584;2023-10-09T14:32:12;27.20;69.50
37782;DHT22;23621;50.878;4.584;2023-10-09T14:35:00;27.30;69.30
37782;DHT22;23621;50.878;4.584;2023-10-09T14:37:48;27.20;68.10
37782;DHT22;23621;50.878;4.584;2023-10-09T14:40:36;27.10;68.70
37782;DHT22;23621;50.878;4.584;2023-10-09T14:43:28;27.20;68.40
37782;DHT22;23621;50.878;4.584;2023-10-09T14:46:20;27.40;68.60
37782;DHT22;23621;50.878;4.584;2023-10-09T14:49:13;27.50;68.50
37782;DHT22;23621;50.878;4.584;2023-10-09T14:52:01;27.50;68.20
37782;DHT22;23621;50.878;4.584;2023-10-09T14:54:48;27.50;68.40
37782;DHT22;23621;50.878;4.584;2023-10-09T14:57:37;27.50;69.20
37782;DHT22;23621;50.878;4.584;2023-10-09T15:00:24;27.50;69.20
37782;DHT22;23621;50.878;4.584;2023-10-09T15:03:14;27.50;68.70
37782;DHT22;23621;50.878;4.584;2023-10-09T15:06:06;27.50;68.50
37782;DHT22;23621;50.878;4.584;2023-10-09T15:08:57;27.40;68.60
37782;DHT22;23621;50.878;4.584;2023-10-09T15:11:45;27.30;69.00
37782;DHT22;23621;50.878;4.584;2023-10-09T15:14:35;27.30;69.00
37782;DHT22;23621;50.878;4.584;2023-10-09T15:17:24;27.10;69.00
37782;DHT22;23621;50.878;4.584;2023-10-09T15:20:12;27.00;69.80
37782;DHT22;23621;50.878;4.584;2023-10-09T15:23:03;27.10;70.00
37782;DHT22;23621;50.878;4.584;2023-10-09T15:25:50;27.10;70.40
37782;DHT22;23621;50.878;4.584;2023-10-09T15:28:39;27.00;70.30
37782;DHT22;23621;50.878;4.584;2023-10-09T15:31:28;27.00;70.30
37782;DHT22;23621;50.878;4.584;2023-10-09T15:34:16;27.00;70.90
37782;DHT22;23621;50.878;4.584;2023-10-09T15:37:05;27.00;71.30
37782;DHT22;23621;50.878;4.584;2023-10-09T15:39:54;27.10;71.60
37782;DHT22;23621;50.878;4.584;2023-10-09T15:42:45;27.00;71.70
37782;DHT22;23621;50.878;4.584;2023-10-09T15:45:44;27.00;72.00
37782;DHT22;23621;50.878;4.584;2023-10-09T15:48:37;27.00;72.10
37782;DHT22;23621;50.878;4.584;2023-10-09T15:51:24;27.00;71.60
37782;DHT22;23621;50.878;4.584;2023-10-09T15:54:12;27.00;71.60
37782;DHT22;23621;50.878;4.584;2023-10-09T15:57:03;27.00;72.10
37782;DHT22;23621;50.878;4.584;2023-10-09T15:59:59;26.90;72.10
37782;DHT22;23621;50.878;4.584;2023-10-09T16:02:49;26.90;72.00
37782;DHT22;23621;50.878;4.584;2023-10-09T16:05:40;26.70;72.60
37782;DHT22;23621;50.878;4.584;2023-10-09T16:08:28;26.50;73.20
37782;DHT22;23621;50.878;4.584;2023-10-09T16:11:19;26.50;73.40
37782;DHT22;23621;50.878;4.584;2023-10-09T16:14:07;26.60;73.40
37782;DHT22;23621;50.878;4.584;2023-10-09T16:16:57;26.70;73.30
37782;DHT22;23621;50.878;4.584;2023-10-09T16:19:44;26.70;73.00
37782;DHT22;23621;50.878;4.584;2023-10-09T16:22:32;26.60;73.00
37782;DHT22;23621;50.878;4.584;2023-10-09T16:25:20;26.60;73.20
37782;DHT22;23621;50.878;4.584;2023-10-09T16:28:11;26.60;73.50
37782;DHT22;23621;50.878;4.584;2023-10-09T16:30:58;26.60;73.70
37782;DHT22;23621;50.878;4.584;2023-10-09T16:33:46;26.50;73.70
37782;DHT22;23621;50.878;4.584;2023-10-09T16:36:40;26.50;73.90
37782;DHT22;23621;50.878;4.584;2023-10-09T16:39:27;26.40;74.00
37782;DHT22;23621;50.878;4.584;2023-10-09T16:42:21;26.30;74.10
37782;DHT22;23621;50.878;4.584;2023-10-09T16:45:11;26.30;74.20
37782;DHT22;23621;50.878;4.584;2023-10-09T16:48:05;26.20;74.30
37782;DHT22;23621;50.878;4.584;2023-10-09T16:50:56;26.20;74.40
37782;DHT22;23621;50.878;4.584;2023-10-09T16:53:43;26.10;74.50
37782;DHT22;23621;50.878;4.584;2023-10-09T16:56:31;26.00;74.50
37782;DHT22;23621;50.878;4.584;2023-10-09T16:59:21;26.00;74.60
37782;DHT22;23621;50.878;4.584;2023-10-09T17:02:09;25.90;74.60
37782;DHT22;23621;50.878;4.584;2023-10-09T17:05:00;25.80;74.70
37782;DHT22;23621;50.878;4.584;2023-10-09T17:07:50;25.80;74.80
37782;DHT22;23621;50.878;4.584;2023-10-09T17:10:37;25.70;74.80
37782;DHT22;23621;50.878;4.584;2023-10-09T17:13:32;25.60;74.80
37782;DHT22;23621;50.878;4.584;2023-10-09T17:16:21;25.60;75.00
37782;DHT22;23621;50.878;4.584;2023-10-09T17:19:08;25.50;75.00
37782;DHT22;23621;50.878;4.584;2023-10-09T17:21:56;25.50;75.10
37782;DHT22;23621;50.878;4.584;2023-10-09T17:24:44;25.40;75.10
37782;DHT22;23621;50.878;4.584;2023-10-09T17:27:33;25.40;75.10
37782;DHT22;23621;50.878;4.584;2023-10-09T17:30:20;25.40;75.10
37782;DHT22;23621;50.878;4.584;2023-10-09T17:33:07;25.40;75.10
37782;DHT22;23621;50.878;4.584;2023-10-09T17:35:54;25.30;75.10
37782;DHT22;23621;50.878;4.584;2023-10-09T17:38:43;25.30;75.20
37782;DHT22;23621;50.878;4.584;2023-10-09T17:41:31;25.20;75.10
37782;DHT22;23621;50.878;4.584;2023-10-09T17:44:22;25.20;75.10
37782;DHT22;23621;50.878;4.584;2023-10-09T17:47:09;25.20;75.20
37782;DHT22;23621;50.878;4.584;2023-10-09T17:49:58;25.10;75.10
37782;DHT22;23621;50.878;4.584;2023-10-09T17:52:45;25.10;75.20
37782;DHT22;23621;50.878;4.584;2023-10-09T17:55:37;25.00;75.20
37782;DHT22;23621;50.878;4.584;2023-10-09T17:58:24;25.00;75.20
37782;DHT22;23621;50.878;4.584;2023-10-09T18:01:13;25.00;75.30
37782;DHT22;23621;50.878;4.584;2023-10-09T18:04:00;25.00;75.30
37782;DHT22;23621;50.878;4.584;2023-10-09T18:06:50;25.00;75.20
37782;DHT22;23621;50.878;4.584;2023-10-09T18:09:40;25.00;75.30